Time;durP1;ratioP1;P1;durP2;ratioP2;P2;SDS_P1;SDS_P2;PMS_P1;PMS_P2;Temp;Humidity;BMP_temperature;BMP_pressure;BME280_temperature;BME280_humidity;BME280_pressure;Samples;Min_cycle;Max_cycle;Signal;HPM_P1;HPM_P2
2023/05/26 00:01:31;;;;;;;13.17;9.50;;;13.40;99.50;;;;;;5092746;28;20484;-68
2023/05/26 00:03:58;;;;;;;12.70;10.97;;;13.40;99.90;;;;;;5091672;28;20447;-67
2023/05/26 00:06:25;;;;;;;16.93;11.53;;;13.30;99.90;;;;;;5092300;28;20443;-68
2023/05/26 00:08:52;;;;;;;12.80;11.57;;;13.30;99.90;;;;;;5092180;28;20442;-67
2023/05/26 00:11:20;;;;;;;13.47;11.30;;;13.20;99.90;;;;;;5092114;28;20434;-67
2023/05/26 00:13:49;;;;;;;11.83;10.63;;;13.20;99.90;;;;;;5091580;28;20471;-68
2023/05/26 00:16:16;;;;;;;12.50;10.80;;;13.20;99.90;;;;;;5091901;28;20505;-67
2023/05/26 00:18:43;;;;;;;14.40;10.70;;;13.20;99.90;;;;;;5091902;28;20435;-67
2023/05/26 00:21:10;;;;;;;9.70;8.57;;;13.10;99.90;;;;;;5091638;28;20439;-67
2023/05/26 00:23:37;;;;;;;9.70;8.67;;;13.10;99.90;;;;;;5091607;28;20450;-67
2023/05/26 00:26:05;;;;;;;13.33;10.23;;;13.10;99.70;;;;;;5092542;28;20546;-67
2023/05/26 00:28:32;;;;;;;11.30;9.10;;;13.00;99.60;;;;;;5091915;28;20446;-67
2023/05/26 00:31:00;;;;;;;12.50;9.50;;;13.00;99.70;;;;;;5092103;28;20470;-67
2023/05/26 00:33:27;;;;;;;9.63;8.10;;;12.90;99.90;;;;;;5091357;28;20777;-67
2023/05/26 00:35:54;;;;;;;11.43;8.53;;;12.90;99.80;;;;;;5092097;28;20991;-68
2023/05/26 00:38:21;;;;;;;9.43;8.43;;;12.80;99.80;;;;;;5091837;28;20442;-68
2023/05/26 00:40:48;;;;;;;11.67;7.80;;;12.80;99.90;;;;;;5092101;28;20438;-68
2023/05/26 00:43:15;;;;;;;9.93;7.80;;;12.80;99.90;;;;;;5091420;28;20435;-67
2023/05/26 00:45:42;;;;;;;9.33;7.60;;;12.70;99.90;;;;;;5091963;28;20439;-67
2023/05/26 00:48:11;;;;;;;9.47;8.27;;;12.80;99.90;;;;;;5091908;28;20466;-68
2023/05/26 00:50:38;;;;;;;10.57;8.33;;;12.70;99.90;;;;;;5091911;28;20518;-67
2023/05/26 00:53:05;;;;;;;10.97;8.87;;;12.80;99.90;;;;;;5091607;28;20443;-67
2023/05/26 00:55:33;;;;;;;12.00;8.57;;;12.80;99.90;;;;;;5091736;28;20450;-67
2023/05/26 00:58:01;;;;;;;9.57;8.57;;;12.90;99.90;;;;;;5091064;28;20478;-68
2023/05/26 01:00:28;;;;;;;10.50;9.10;;;12.90;99.90;;;;;;5092119;28;20435;-67
2023/05/26 01:02:58;;;;;;;11.33;8.40;;;12.90;99.90;;;;;;5091567;28;20488;-67
2023/05/26 01:05:28;;;;;;;12.37;8.80;;;12.90;99.90;;;;;;5091771;28;20937;-67
2023/05/26 01:07:55;;;;;;;11.40;8.97;;;13.00;99.90;;;;;;5092702;28;20834;-67
2023/05/26 01:10:23;;;;;;;12.10;9.67;;;13.00;99.90;;;;;;5095378;28;20446;-68
2023/05/26 01:12:57;;;;;;;10.77;8.60;;;13.10;99.90;;;;;;5094413;28;20439;-68
2023/05/26 01:15:30;;;;;;;12.47;9.73;;;13.10;99.90;;;;;;5095328;28;20437;-67
2023/05/26 01:18:04;;;;;;;10.57;8.17;;;13.10;99.90;;;;;;5094877;28;20486;-67
2023/05/26 01:20:38;;;;;;;11.33;9.30;;;13.10;99.90;;;;;;5094909;28;20467;-67
2023/05/26 01:23:33;;;;;;;13.90;10.17;;;13.10;99.90;;;;;;5094638;28;20438;-68
2023/05/26 01:26:20;;;;;;;11.63;9.17;;;13.20;99.90;;;;;;5094800;28;20500;-68
2023/05/26 01:28:53;;;;;;;10.50;8.60;;;13.20;99.90;;;;;;5095062;28;20514;-67
2023/05/26 01:31:23;;;;;;;12.80;8.90;;;13.20;99.90;;;;;;5095182;28;20451;-68
2023/05/26 01:33:50;;;;;;;13.23;9.77;;;13.10;99.90;;;;;;5094431;28;20500;-68
2023/05/26 01:36:17;;;;;;;10.37;9.00;;;13.10;99.90;;;;;;5094819;28;20442;-68
2023/05/26 01:38:44;;;;;;;11.70;8.70;;;13.10;99.90;;;;;;5094743;28;20435;-67
2023/05/26 01:41:20;;;;;;;10.90;9.80;;;13.00;99.90;;;;;;5093049;28;20435;-68
2023/05/26 01:43:59;;;;;;;11.80;10.60;;;12.90;99.90;;;;;;5093325;28;20431;-68
2023/05/26 01:46:29;;;;;;;12.17;10.70;;;12.90;99.90;;;;;;5094893;28;20442;-68
2023/05/26 01:49:00;;;;;;;8.93;8.03;;;13.00;99.90;;;;;;5094037;28;20507;-67
2023/05/26 01:51:33;;;;;;;14.53;10.50;;;13.00;99.90;;;;;;5094735;28;20439;-67
2023/05/26 01:54:03;;;;;;;16.33;10.07;;;13.00;99.90;;;;;;5094569;28;20979;-67
2023/05/26 01:56:35;;;;;;;10.50;8.77;;;13.00;99.90;;;;;;5094988;28;20492;-67
2023/05/26 01:59:04;;;;;;;9.93;8.80;;;13.00;99.90;;;;;;5094781;28;20431;-68
2023/05/26 02:01:33;;;;;;;10.07;9.07;;;12.90;99.90;;;;;;5094905;28;20441;-67
2023/05/26 02:04:01;;;;;;;19.43;10.77;;;12.90;99.90;;;;;;5094720;28;20526;-67
2023/05/26 02:06:28;;;;;;;11.90;9.40;;;12.90;99.90;;;;;;5094560;28;20554;-67
2023/05/26 02:08:55;;;;;;;10.60;8.63;;;12.90;99.90;;;;;;5094131;28;20496;-67
2023/05/26 02:11:22;;;;;;;9.87;7.97;;;12.90;99.90;;;;;;5094310;28;20463;-68
2023/05/26 02:13:49;;;;;;;8.87;7.97;;;12.90;99.90;;;;;;5093948;28;20500;-67
2023/05/26 02:16:21;;;;;;;9.40;7.80;;;12.90;99.90;;;;;;5094337;28;20837;-67
2023/05/26 02:18:48;;;;;;;12.77;8.30;;;12.90;99.90;;;;;;5093434;28;20431;-67
2023/05/26 02:21:16;;;;;;;8.23;7.30;;;13.00;99.90;;;;;;5093602;28;20440;-68
2023/05/26 02:23:43;;;;;;;12.17;9.10;;;13.00;99.90;;;;;;5094255;28;20442;-67
2023/05/26 02:26:11;;;;;;;9.23;7.90;;;13.10;99.90;;;;;;5073707;28;20433;-68
2023/05/26 02:28:38;;;;;;;12.20;8.57;;;13.10;99.90;;;;;;5074068;28;20514;-68
2023/05/26 02:31:06;;;;;;;12.63;9.77;;;13.20;99.90;;;;;;5093188;28;20471;-67
2023/05/26 02:33:35;;;;;;;10.47;9.37;;;13.20;99.90;;;;;;5093970;28;20439;-67
2023/05/26 02:36:02;;;;;;;11.60;8.97;;;13.10;99.90;;;;;;5092614;28;20431;-67
2023/05/26 02:38:29;;;;;;;20.10;16.47;;;13.20;99.90;;;;;;5093366;28;20525;-67
2023/05/26 02:40:56;;;;;;;13.47;12.07;;;13.20;99.90;;;;;;5093488;28;20443;-67
2023/05/26 02:43:23;;;;;;;14.13;9.90;;;13.30;99.90;;;;;;5093499;28;20480;-68
2023/05/26 02:45:51;;;;;;;11.03;8.50;;;13.30;99.90;;;;;;5093289;28;20489;-67
2023/05/26 02:48:21;;;;;;;10.33;9.23;;;13.30;99.90;;;;;;5093616;28;20470;-67
2023/05/26 02:50:50;;;;;;;12.33;8.40;;;13.30;99.90;;;;;;5093041;28;20435;-67
2023/05/26 02:53:18;;;;;;;10.47;8.40;;;13.30;99.90;;;;;;5092303;28;20435;-67
2023/05/26 02:55:45;;;;;;;12.60;8.87;;;13.40;99.90;;;;;;5093422;28;20450;-67
2023/05/26 02:58:13;;;;;;;13.97;8.53;;;13.40;99.90;;;;;;5093314;28;20482;-68
2023/05/26 03:00:40;;;;;;;8.20;7.33;;;13.40;99.90;;;;;;5093080;28;20438;-68
2023/05/26 03:03:07;;;;;;;11.90;9.73;;;13.40;99.90;;;;;;5093439;28;20440;-67
2023/05/26 03:05:34;;;;;;;8.90;7.73;;;13.40;99.90;;;;;;5093140;28;20440;-66
2023/05/26 03:08:03;;;;;;;10.27;9.27;;;13.40;99.90;;;;;;5093323;28;20500;-67
2023/05/26 03:10:30;;;;;;;10.20;8.20;;;13.30;99.90;;;;;;5092852;28;20435;-68
2023/05/26 03:12:57;;;;;;;8.40;7.40;;;13.30;99.90;;;;;;5092856;28;20435;-68
2023/05/26 03:15:24;;;;;;;10.30;8.43;;;13.30;99.90;;;;;;5092518;28;20832;-68
2023/05/26 03:17:54;;;;;;;11.40;10.20;;;13.30;99.90;;;;;;5091957;28;20576;-67
2023/05/26 03:20:21;;;;;;;10.93;9.50;;;13.20;99.90;;;;;;5092905;28;20453;-67
2023/05/26 03:22:48;;;;;;;11.10;9.90;;;13.20;99.90;;;;;;5093169;28;20447;-67
2023/05/26 03:25:16;;;;;;;10.33;9.23;;;13.10;99.90;;;;;;5092603;28;20840;-67
2023/05/26 03:27:43;;;;;;;12.23;10.10;;;13.10;99.90;;;;;;5092474;28;20443;-68
2023/05/26 03:30:11;;;;;;;9.70;8.60;;;13.20;99.90;;;;;;5092464;28;20443;-67
2023/05/26 03:32:38;;;;;;;11.90;8.97;;;13.10;99.90;;;;;;5092670;28;20443;-67
2023/05/26 03:35:06;;;;;;;8.87;7.97;;;13.20;99.90;;;;;;5092599;28;20435;-67
2023/05/26 03:37:34;;;;;;;10.63;9.10;;;13.10;99.90;;;;;;5092767;28;20482;-67
2023/05/26 03:40:01;;;;;;;11.07;9.17;;;13.20;99.90;;;;;;5092830;28;20456;-67
2023/05/26 03:42:29;;;;;;;13.47;8.17;;;13.20;99.90;;;;;;5092095;28;20508;-68
2023/05/26 03:44:56;;;;;;;10.97;9.47;;;13.20;99.90;;;;;;5092508;28;20974;-67
2023/05/26 03:47:23;;;;;;;10.90;9.40;;;13.10;99.90;;;;;;5091959;28;20447;-67
2023/05/26 03:49:50;;;;;;;10.37;9.20;;;13.20;99.90;;;;;;5092799;28;20530;-67
2023/05/26 03:52:20;;;;;;;10.50;8.83;;;13.20;99.90;;;;;;5092161;28;20436;-67
2023/05/26 03:54:47;;;;;;;9.90;8.90;;;13.30;99.90;;;;;;5092399;28;20439;-68
2023/05/26 03:57:14;;;;;;;10.60;9.50;;;13.30;99.90;;;;;;5092129;28;20466;-68
2023/05/26 03:59:42;;;;;;;14.20;9.60;;;13.30;99.90;;;;;;5092555;28;20450;-67
2023/05/26 04:02:10;;;;;;;12.83;8.77;;;13.30;99.90;;;;;;5092313;28;20439;-68
2023/05/26 04:04:37;;;;;;;13.10;9.80;;;13.40;99.90;;;;;;5092480;28;20517;-67
2023/05/26 04:07:04;;;;;;;12.20;9.77;;;13.40;99.90;;;;;;5092391;28;20505;-67
2023/05/26 04:09:32;;;;;;;11.20;9.90;;;13.40;99.90;;;;;;5092836;28;20443;-68
2023/05/26 04:12:00;;;;;;;13.57;11.03;;;13.50;99.90;;;;;;5091943;28;20567;-67
2023/05/26 04:14:27;;;;;;;11.87;10.03;;;13.50;99.90;;;;;;5092474;28;20439;-67
2023/05/26 04:16:56;;;;;;;13.80;9.27;;;13.50;99.90;;;;;;5091642;28;20516;-68
2023/05/26 04:19:23;;;;;;;11.83;10.17;;;13.60;99.90;;;;;;5092310;28;20439;-68
2023/05/26 04:21:50;;;;;;;11.70;10.13;;;13.60;99.90;;;;;;5091916;28;20803;-68
2023/05/26 04:24:17;;;;;;;9.13;8.23;;;13.60;99.90;;;;;;5092322;28;20926;-68
2023/05/26 04:26:44;;;;;;;12.27;10.97;;;13.70;99.90;;;;;;5091920;28;20945;-67
2023/05/26 04:29:20;;;;;;;10.00;9.00;;;13.70;99.90;;;;;;5092305;28;20454;-68
2023/05/26 04:31:47;;;;;;;14.80;9.23;;;13.80;99.90;;;;;;5091796;28;20506;-68
2023/05/26 04:34:16;;;;;;;9.70;8.60;;;13.90;99.90;;;;;;5092292;28;20474;-68
2023/05/26 04:36:44;;;;;;;13.20;8.60;;;13.90;99.90;;;;;;5091821;28;20435;-68
2023/05/26 04:39:11;;;;;;;8.50;7.47;;;14.00;99.90;;;;;;5092178;28;20483;-68
2023/05/26 04:41:38;;;;;;;11.90;9.37;;;14.10;99.90;;;;;;5091812;28;20443;-68
2023/05/26 04:44:05;;;;;;;10.47;9.03;;;14.20;99.90;;;;;;5094972;28;20470;-68
2023/05/26 04:46:37;;;;;;;9.70;8.20;;;14.20;99.90;;;;;;5095946;28;20508;-68
2023/05/26 04:49:04;;;;;;;11.80;8.67;;;14.30;99.90;;;;;;5096125;28;20447;-67
2023/05/26 04:51:33;;;;;;;10.90;8.60;;;14.30;99.90;;;;;;5095747;28;20835;-67
2023/05/26 04:54:00;;;;;;;10.30;9.13;;;14.30;99.90;;;;;;5096029;28;21000;-68
2023/05/26 04:56:30;;;;;;;10.90;9.30;;;14.30;99.90;;;;;;5095562;28;20468;-68
2023/05/26 04:58:58;;;;;;;13.20;8.80;;;14.30;99.90;;;;;;5095692;28;20486;-67
2023/05/26 05:01:26;;;;;;;12.53;8.60;;;14.30;99.90;;;;;;5095782;28;20435;-68
2023/05/26 05:03:53;;;;;;;9.70;8.20;;;14.30;99.90;;;;;;5095206;28;20474;-68
2023/05/26 05:06:20;;;;;;;14.60;9.10;;;14.40;99.90;;;;;;5095020;28;20925;-68
2023/05/26 05:08:48;;;;;;;10.53;9.10;;;14.40;99.90;;;;;;5095756;28;21009;-68
2023/05/26 05:11:16;;;;;;;11.33;10.20;;;14.40;99.90;;;;;;5095226;28;20435;-68
2023/05/26 05:13:43;;;;;;;9.73;8.03;;;14.50;99.90;;;;;;5095147;28;20921;-68
2023/05/26 05:16:10;;;;;;;12.47;9.30;;;14.60;99.90;;;;;;5095140;28;20466;-67
2023/05/26 05:18:37;;;;;;;15.73;9.03;;;14.80;99.90;;;;;;5095306;28;20478;-68
2023/05/26 05:21:04;;;;;;;13.90;8.90;;;14.90;99.90;;;;;;5095047;28;20568;-68
2023/05/26 05:23:34;;;;;;;11.70;9.60;;;15.10;99.90;;;;;;5094314;28;20986;-67
2023/05/26 05:26:02;;;;;;;10.20;9.20;;;15.20;99.90;;;;;;5094907;28;20815;-68
2023/05/26 05:28:30;;;;;;;9.53;8.53;;;15.40;99.90;;;;;;5095372;28;20439;-67
2023/05/26 05:30:57;;;;;;;12.80;10.70;;;15.50;99.90;;;;;;5077551;28;20470;-68
2023/05/26 05:33:25;;;;;;;11.53;10.33;;;15.70;99.40;;;;;;5082404;28;21533;-68
2023/05/26 05:35:52;;;;;;;14.70;10.37;;;15.80;98.90;;;;;;5087624;28;20429;-68
2023/05/26 05:38:19;;;;;;;13.17;11.80;;;15.80;98.70;;;;;;5090367;28;20875;-68
2023/05/26 05:40:46;;;;;;;14.13;11.30;;;15.90;98.70;;;;;;5091345;28;20431;-68
2023/05/26 05:43:15;;;;;;;14.47;9.97;;;16.10;98.60;;;;;;5090595;28;20493;-68
2023/05/26 05:45:42;;;;;;;14.70;13.00;;;16.40;98.30;;;;;;5092092;28;20914;-68
2023/05/26 05:48:09;;;;;;;13.10;11.20;;;16.60;98.00;;;;;;5090962;28;20443;-68
2023/05/26 05:50:40;;;;;;;14.07;12.07;;;16.80;97.80;;;;;;5091446;28;20435;-68
2023/05/26 05:53:07;;;;;;;13.70;11.60;;;17.00;97.00;;;;;;5091536;28;20435;-68
2023/05/26 05:55:34;;;;;;;14.90;12.27;;;17.10;96.60;;;;;;5091577;28;20446;-68
2023/05/26 05:58:01;;;;;;;14.90;12.77;;;17.20;96.20;;;;;;5087391;28;20482;-68
2023/05/26 06:00:30;;;;;;;12.90;10.07;;;17.30;95.80;;;;;;5091755;28;20845;-68
2023/05/26 06:02:57;;;;;;;17.50;11.83;;;17.40;95.40;;;;;;5084109;28;20933;-68
2023/05/26 06:05:24;;;;;;;14.23;12.20;;;17.50;95.00;;;;;;5079265;28;20443;-68
2023/05/26 06:07:51;;;;;;;14.13;11.40;;;17.50;94.80;;;;;;5091645;28;20520;-67
2023/05/26 06:10:49;;;;;;;12.73;10.40;;;17.50;94.80;;;;;;5081060;28;20570;-68
2023/05/26 06:13:16;;;;;;;16.20;10.40;;;17.50;94.80;;;;;;5074342;28;20511;-68
2023/05/26 06:15:45;;;;;;;14.50;11.40;;;17.50;94.20;;;;;;5091471;28;20447;-68
2023/05/26 06:18:12;;;;;;;15.03;11.37;;;17.50;94.30;;;;;;5088729;28;20465;-68
2023/05/26 06:20:39;;;;;;;15.50;11.23;;;17.60;94.30;;;;;;5085250;28;20508;-68
2023/05/26 06:23:06;;;;;;;14.37;11.70;;;17.70;94.30;;;;;;5072528;28;20444;-68
2023/05/26 06:25:33;;;;;;;12.80;11.40;;;17.90;94.50;;;;;;5082030;28;20829;-68
2023/05/26 06:28:00;;;;;;;15.83;10.93;;;18.20;94.70;;;;;;5072779;28;20440;-68
2023/05/26 06:30:27;;;;;;;13.60;11.10;;;18.40;94.50;;;;;;5072529;28;20494;-68
2023/05/26 06:32:55;;;;;;;16.63;12.17;;;18.50;93.80;;;;;;5072919;28;20446;-68
2023/05/26 06:35:24;;;;;;;16.10;11.80;;;18.50;93.60;;;;;;5072632;28;20518;-68
2023/05/26 06:37:51;;;;;;;14.97;11.50;;;18.50;93.00;;;;;;5082453;28;20423;-68
2023/05/26 06:40:18;;;;;;;12.63;10.80;;;18.50;92.80;;;;;;5075413;28;20440;-68
2023/05/26 06:42:46;;;;;;;15.63;12.27;;;18.40;92.60;;;;;;5074814;28;20454;-68
2023/05/26 06:45:12;;;;;;;13.93;10.63;;;18.50;92.20;;;;;;5089084;28;20467;-68
2023/05/26 06:47:41;;;;;;;12.30;10.60;;;18.50;92.70;;;;;;5094094;28;20945;-68
2023/05/26 06:50:11;;;;;;;16.00;11.17;;;18.50;92.50;;;;;;5094240;28;20478;-68
2023/05/26 06:52:38;;;;;;;12.53;10.20;;;18.60;92.40;;;;;;5094228;28;20515;-68
2023/05/26 06:55:05;;;;;;;13.27;10.57;;;18.70;92.30;;;;;;5094101;28;20482;-68
2023/05/26 06:57:32;;;;;;;12.60;10.43;;;18.80;91.90;;;;;;5094105;28;20831;-68
2023/05/26 06:59:59;;;;;;;12.23;10.83;;;18.80;91.90;;;;;;5093707;28;20518;-68
2023/05/26 07:02:26;;;;;;;13.13;11.40;;;18.90;91.40;;;;;;5093669;28;20438;-68
2023/05/26 07:04:53;;;;;;;12.07;10.00;;;19.00;91.70;;;;;;5093109;28;20496;-68
2023/05/26 07:07:22;;;;;;;10.17;8.53;;;19.00;91.80;;;;;;5093362;28;20431;-68
2023/05/26 07:09:49;;;;;;;12.87;10.60;;;19.20;92.10;;;;;;5093898;28;20846;-68
2023/05/26 07:12:16;;;;;;;13.47;9.97;;;19.30;91.70;;;;;;5093870;28;20482;-68
2023/05/26 07:14:42;;;;;;;11.60;10.30;;;19.60;90.80;;;;;;5093521;28;20444;-68
2023/05/26 07:17:10;;;;;;;12.67;11.30;;;19.80;90.70;;;;;;5093559;28;20471;-68
2023/05/26 07:19:37;;;;;;;12.97;10.53;;;20.00;90.40;;;;;;5093355;28;20479;-68
2023/05/26 07:22:05;;;;;;;11.83;10.27;;;20.20;90.30;;;;;;5093787;28;20489;-68
2023/05/26 07:24:33;;;;;;;13.50;10.20;;;20.30;88.50;;;;;;5093474;28;20526;-68
2023/05/26 07:27:00;;;;;;;9.93;8.83;;;20.40;89.20;;;;;;5093633;28;20470;-69
2023/05/26 07:29:27;;;;;;;10.67;9.57;;;20.60;89.90;;;;;;5093230;28;20781;-68
2023/05/26 07:31:54;;;;;;;12.00;9.83;;;20.70;87.30;;;;;;5093510;28;20467;-68
2023/05/26 07:34:21;;;;;;;10.10;8.60;;;20.90;85.50;;;;;;5093243;28;20559;-68
2023/05/26 07:36:48;;;;;;;9.83;8.83;;;21.10;86.70;;;;;;5093362;28;20445;-68
2023/05/26 07:39:15;;;;;;;10.70;9.10;;;21.40;86.90;;;;;;5093217;28;20517;-69
2023/05/26 07:41:43;;;;;;;12.80;10.07;;;21.60;85.40;;;;;;5092787;28;20858;-68
2023/05/26 07:44:10;;;;;;;10.17;9.17;;;21.70;84.30;;;;;;5093137;28;20471;-68
2023/05/26 07:46:37;;;;;;;13.97;10.13;;;21.90;83.20;;;;;;5093001;28;20489;-68
2023/05/26 07:49:04;;;;;;;14.30;9.50;;;21.90;81.80;;;;;;5093327;28;20471;-68
2023/05/26 07:51:31;;;;;;;13.33;9.33;;;21.90;80.40;;;;;;5093136;28;20485;-68
2023/05/26 07:53:58;;;;;;;13.80;8.77;;;21.90;79.60;;;;;;5092900;28;21028;-69
2023/05/26 07:56:25;;;;;;;10.30;8.30;;;22.00;80.40;;;;;;5093082;28;20494;-68
2023/05/26 07:58:54;;;;;;;9.40;8.40;;;22.10;81.20;;;;;;5093003;28;20483;-68
2023/05/26 08:01:20;;;;;;;9.50;8.33;;;22.20;79.80;;;;;;5092488;28;20582;-68
2023/05/26 08:03:48;;;;;;;10.13;9.10;;;22.20;78.50;;;;;;5093075;28;20477;-68
2023/05/26 08:06:15;;;;;;;12.77;9.73;;;22.30;78.00;;;;;;5093040;28;20427;-68
2023/05/26 08:08:41;;;;;;;11.50;8.37;;;22.40;77.40;;;;;;5092802;28;20549;-68
2023/05/26 08:11:08;;;;;;;12.77;9.40;;;22.40;76.60;;;;;;5092371;28;20482;-69
2023/05/26 08:13:35;;;;;;;11.67;10.03;;;22.40;76.40;;;;;;5092853;28;20478;-68
2023/05/26 08:16:04;;;;;;;11.13;7.70;;;22.50;76.30;;;;;;5092456;28;20522;-68
2023/05/26 08:18:31;;;;;;;15.90;9.93;;;22.50;77.80;;;;;;5096896;28;20469;-68
2023/05/26 08:20:58;;;;;;;14.53;9.73;;;22.60;78.20;;;;;;5097087;28;20446;-68
2023/05/26 08:23:25;;;;;;;9.90;8.90;;;22.70;76.30;;;;;;5096788;28;20438;-69
2023/05/26 08:25:52;;;;;;;9.00;8.00;;;22.80;75.10;;;;;;5096995;28;20485;-68
2023/05/26 08:28:19;;;;;;;10.77;8.07;;;22.90;76.60;;;;;;5096911;28;20434;-68
2023/05/26 08:30:45;;;;;;;10.33;8.10;;;23.00;76.60;;;;;;5096921;28;20471;-68
2023/05/26 08:33:14;;;;;;;12.23;9.10;;;23.10;72.80;;;;;;5096762;28;20545;-68
2023/05/26 08:35:41;;;;;;;11.67;8.77;;;23.10;73.40;;;;;;5096644;28;20471;-68
2023/05/26 08:38:07;;;;;;;11.83;8.50;;;23.20;73.20;;;;;;5096214;28;20466;-68
2023/05/26 08:40:34;;;;;;;12.20;8.83;;;23.40;74.30;;;;;;5096807;28;20528;-68
2023/05/26 08:43:07;;;;;;;11.83;8.50;;;23.50;73.60;;;;;;5096584;28;20754;-68
2023/05/26 08:45:34;;;;;;;12.60;8.77;;;23.70;72.40;;;;;;5096626;28;20442;-69
2023/05/26 08:48:03;;;;;;;11.30;8.90;;;23.90;72.10;;;;;;5096663;28;20439;-69
2023/05/26 08:50:31;;;;;;;11.00;8.40;;;24.00;70.60;;;;;;5096293;28;20482;-68
2023/05/26 08:53:01;;;;;;;10.03;8.17;;;24.10;70.00;;;;;;5096550;28;20431;-68
2023/05/26 08:55:29;;;;;;;11.20;9.27;;;24.30;69.80;;;;;;5095934;28;20424;-68
2023/05/26 08:57:58;;;;;;;12.90;9.27;;;24.40;68.30;;;;;;5095755;28;20514;-68
2023/05/26 09:00:29;;;;;;;10.87;8.73;;;24.60;69.40;;;;;;5095977;28;21167;-69
2023/05/26 09:02:56;;;;;;;11.83;8.77;;;24.70;67.70;;;;;;5096137;28;20423;-70
2023/05/26 09:05:23;;;;;;;13.50;9.97;;;24.80;67.30;;;;;;5096035;28;20484;-68
2023/05/26 09:07:51;;;;;;;11.03;9.80;;;24.90;65.80;;;;;;5095957;28;20466;-69
2023/05/26 09:10:23;;;;;;;13.77;11.67;;;25.00;64.30;;;;;;5096120;28;20470;-69
2023/05/26 09:12:50;;;;;;;14.97;9.80;;;25.10;65.40;;;;;;5095663;28;20478;-69
2023/05/26 09:15:20;;;;;;;10.83;9.57;;;25.20;63.60;;;;;;5094614;28;20517;-68
2023/05/26 09:17:47;;;;;;;13.03;9.10;;;25.30;64.30;;;;;;5094526;28;20502;-68
2023/05/26 09:20:14;;;;;;;9.37;8.43;;;25.40;63.30;;;;;;5075456;28;20486;-68
2023/05/26 09:22:41;;;;;;;13.57;9.90;;;25.50;63.10;;;;;;5075712;28;20479;-68
2023/05/26 09:25:10;;;;;;;11.00;9.30;;;25.70;61.70;;;;;;5074500;28;20528;-68
2023/05/26 09:27:37;;;;;;;11.20;9.90;;;25.80;61.50;;;;;;5075050;28;20521;-68
2023/05/26 09:30:13;;;;;;;12.90;9.77;;;25.90;59.70;;;;;;5074074;28;20489;-68
2023/05/26 09:32:40;;;;;;;13.37;10.97;;;26.00;59.00;;;;;;5075331;28;20447;-68
2023/05/26 09:35:08;;;;;;;13.43;9.33;;;26.00;56.90;;;;;;5074926;28;20490;-67
2023/05/26 09:37:38;;;;;;;10.83;9.73;;;26.00;57.30;;;;;;5074409;28;20424;-68
2023/05/26 09:40:10;;;;;;;9.90;8.40;;;26.10;57.40;;;;;;5075201;28;20519;-69
2023/05/26 09:42:38;;;;;;;10.20;7.97;;;26.20;59.00;;;;;;5074851;28;20475;-68
2023/05/26 09:45:06;;;;;;;11.97;9.90;;;26.50;59.60;;;;;;5074966;28;20440;-68
2023/05/26 09:47:35;;;;;;;13.10;9.67;;;26.60;57.00;;;;;;5074639;28;20863;-68
2023/05/26 09:50:05;;;;;;;11.40;9.03;;;26.70;56.90;;;;;;5075112;28;20439;-69
2023/05/26 09:52:36;;;;;;;10.67;8.60;;;26.90;57.40;;;;;;5075176;28;20436;-69
2023/05/26 09:55:03;;;;;;;9.00;7.80;;;27.00;56.60;;;;;;5075357;28;20428;-69
2023/05/26 09:57:33;;;;;;;13.53;8.33;;;27.30;55.60;;;;;;5074776;28;20467;-69
2023/05/26 10:00:06;;;;;;;10.17;8.40;;;27.40;52.90;;;;;;5074884;28;20516;-69
2023/05/26 10:02:33;;;;;;;11.30;9.00;;;27.50;51.60;;;;;;5074882;28;20440;-68
2023/05/26 10:05:00;;;;;;;14.63;7.37;;;27.50;52.20;;;;;;5074906;28;20491;-69
2023/05/26 10:07:28;;;;;;;11.50;7.50;;;27.40;52.70;;;;;;5074700;28;20475;-68
2023/05/26 10:09:59;;;;;;;9.50;6.50;;;27.40;50.20;;;;;;5074802;28;20444;-69
2023/05/26 10:12:33;;;;;;;10.30;6.70;;;27.30;48.20;;;;;;5074674;28;20452;-68
2023/05/26 10:15:01;;;;;;;10.20;7.20;;;27.40;49.90;;;;;;5074631;28;20476;-68
2023/05/26 10:17:28;;;;;;;7.43;6.43;;;27.80;49.80;;;;;;5074029;28;20499;-68
2023/05/26 10:19:57;;;;;;;9.80;6.97;;;28.00;49.10;;;;;;5074316;28;20483;-69
2023/05/26 10:22:29;;;;;;;12.50;6.73;;;28.10;47.60;;;;;;5074245;28;20491;-68
2023/05/26 10:25:01;;;;;;;13.63;7.60;;;28.20;47.30;;;;;;5074636;28;20476;-69
2023/05/26 10:27:32;;;;;;;9.70;6.60;;;28.10;47.90;;;;;;5074325;28;20522;-69
2023/05/26 10:30:05;;;;;;;11.63;6.67;;;28.00;47.50;;;;;;5074110;28;20838;-68
2023/05/26 10:32:46;;;;;;;12.00;7.30;;;27.80;47.90;;;;;;5073920;28;20428;-69
2023/05/26 10:35:24;;;;;;;8.50;5.90;;;27.70;48.30;;;;;;5073990;28;20467;-68
2023/05/26 10:37:55;;;;;;;10.10;7.70;;;27.80;48.80;;;;;;5074042;28;20476;-69
2023/05/26 10:40:30;;;;;;;13.53;7.47;;;28.00;47.80;;;;;;5073046;28;20519;-69
2023/05/26 10:43:01;;;;;;;9.70;6.63;;;27.90;47.70;;;;;;5073821;28;20493;-69
2023/05/26 10:45:33;;;;;;;10.83;6.90;;;27.80;48.00;;;;;;5070240;28;20523;-69
2023/05/26 10:48:07;;;;;;;8.37;7.07;;;27.70;49.10;;;;;;5073405;28;20436;-69
2023/05/26 10:51:09;;;;;;;9.40;6.30;;;27.60;47.50;;;;;;5074407;28;20449;-68
2023/05/26 10:53:40;;;;;;;8.20;5.60;;;27.50;45.10;;;;;;5073674;28;20467;-68
2023/05/26 10:56:11;;;;;;;9.03;5.80;;;27.40;45.00;;;;;;5073906;28;20445;-68
2023/05/26 10:58:40;;;;;;;10.83;5.90;;;27.40;44.30;;;;;;5073780;28;20451;-69
2023/05/26 11:01:11;;;;;;;7.20;6.20;;;27.50;45.40;;;;;;5073709;28;20488;-68
2023/05/26 11:03:41;;;;;;;10.40;6.40;;;27.70;46.00;;;;;;5073307;28;20432;-68
2023/05/26 11:06:10;;;;;;;9.17;6.57;;;27.90;48.90;;;;;;5073705;28;20440;-69
2023/05/26 11:08:38;;;;;;;9.00;5.80;;;28.00;47.20;;;;;;5073392;28;20911;-68
2023/05/26 11:11:06;;;;;;;8.33;5.63;;;28.20;47.50;;;;;;5072652;28;20954;-69
2023/05/26 11:14:00;;;;;;;7.20;5.57;;;28.30;47.80;;;;;;5072565;28;20502;-69
2023/05/26 11:16:28;;;;;;;8.00;5.97;;;28.40;46.10;;;;;;5070521;28;20504;-69
2023/05/26 11:18:57;;;;;;;8.40;6.40;;;28.50;46.40;;;;;;5073228;28;20527;-69
2023/05/26 11:21:29;;;;;;;9.37;5.37;;;28.70;45.50;;;;;;5073366;28;21049;-69
2023/05/26 11:23:58;;;;;;;9.93;5.17;;;28.90;46.10;;;;;;5072906;28;20440;-68
2023/05/26 11:26:27;;;;;;;7.23;5.50;;;29.10;46.20;;;;;;5072338;28;20934;-69
2023/05/26 11:28:55;;;;;;;18.63;7.03;;;29.30;46.00;;;;;;5072557;28;20480;-69
2023/05/26 11:31:25;;;;;;;9.93;6.90;;;29.40;44.60;;;;;;5071400;28;20436;-69
2023/05/26 11:33:55;;;;;;;9.80;5.97;;;29.20;42.80;;;;;;5071826;28;20433;-67
2023/05/26 11:36:23;;;;;;;8.10;6.60;;;29.10;42.80;;;;;;5054856;28;20472;-78
2023/05/26 11:38:54;;;;;;;11.50;6.50;;;28.90;44.00;;;;;;5070585;28;20440;-72
2023/05/26 11:41:25;;;;;;;8.33;5.80;;;28.70;43.90;;;;;;5063570;28;20476;-72
2023/05/26 11:43:54;;;;;;;10.20;7.47;;;28.50;44.40;;;;;;5070706;28;20432;-72
2023/05/26 11:46:22;;;;;;;8.00;5.27;;;28.30;43.60;;;;;;5071088;28;20518;-72
2023/05/26 11:48:50;;;;;;;12.00;7.03;;;28.30;45.20;;;;;;5070975;28;20444;-72
2023/05/26 11:51:20;;;;;;;13.03;7.00;;;28.30;44.80;;;;;;5071008;28;20428;-72
2023/05/26 11:53:52;;;;;;;7.70;6.63;;;28.30;44.20;;;;;;5070951;28;20471;-72
2023/05/26 11:56:20;;;;;;;7.73;6.33;;;28.30;44.80;;;;;;5071514;28;20440;-72
2023/05/26 11:58:48;;;;;;;9.47;6.80;;;28.30;45.70;;;;;;5070995;28;20528;-71
2023/05/26 12:01:16;;;;;;;9.73;6.87;;;28.40;46.20;;;;;;5070945;28;20488;-72
2023/05/26 12:03:46;;;;;;;8.97;6.37;;;28.50;46.40;;;;;;5071515;28;20440;-71
2023/05/26 12:06:19;;;;;;;7.40;6.07;;;28.60;45.90;;;;;;5069340;28;20432;-72
2023/05/26 12:08:47;;;;;;;10.70;6.53;;;28.70;46.30;;;;;;5071882;28;20440;-72
2023/05/26 12:11:16;;;;;;;8.90;6.47;;;28.80;45.80;;;;;;5070745;28;20432;-72
2023/05/26 12:13:43;;;;;;;9.57;5.63;;;28.80;45.10;;;;;;5071565;28;20433;-72
2023/05/26 12:16:31;;;;;;;11.37;7.00;;;28.80;43.40;;;;;;5071975;28;20438;-72
2023/05/26 12:18:59;;;;;;;6.37;5.47;;;28.90;44.10;;;;;;5072836;28;20449;-73
2023/05/26 12:21:29;;;;;;;7.93;6.53;;;28.90;44.30;;;;;;5072364;28;20545;-80
2023/05/26 12:23:57;;;;;;;12.13;6.20;;;28.90;42.90;;;;;;5072090;28;20652;-73
2023/05/26 12:26:29;;;;;;;8.73;6.20;;;29.00;43.30;;;;;;5072056;28;20487;-73
2023/05/26 12:29:12;;;;;;;11.23;6.60;;;28.90;43.70;;;;;;5071626;28;20472;-73
2023/05/26 12:31:44;;;;;;;9.63;6.90;;;28.80;42.70;;;;;;5072571;28;20449;-72
2023/05/26 12:34:12;;;;;;;11.50;7.10;;;28.60;41.80;;;;;;5071419;28;20559;-72
2023/05/26 12:36:41;;;;;;;7.63;6.57;;;28.50;43.20;;;;;;5071741;28;20491;-72
2023/05/26 12:39:08;;;;;;;9.70;6.87;;;28.30;43.80;;;;;;5072635;28;20441;-72
2023/05/26 12:41:40;;;;;;;9.03;6.00;;;28.30;45.30;;;;;;5071828;28;20948;-72
2023/05/26 12:44:07;;;;;;;11.13;5.60;;;28.20;44.90;;;;;;5071385;28;20814;-73
2023/05/26 12:46:35;;;;;;;9.40;6.30;;;28.20;43.70;;;;;;5071646;28;20845;-72